Time;durP1;ratioP1;P1;durP2;ratioP2;P2;SDS_P1;SDS_P2;PMS_P1;PMS_P2;Temp;Humidity;BMP_temperature;BMP_pressure;BME280_temperature;BME280_humidity;BME280_pressure;Samples;Min_cycle;Max_cycle;Signal;HPM_P1;HPM_P2
2021/11/08 00:00:29;;;;;;;46.77;30.55;;;;;;;6.65;100.00;101152.17;1766802;80;21494;-86
2021/11/08 00:03:01;;;;;;;42.10;30.02;;;;;;;6.67;100.00;101155.53;1745361;81;21074;-86
2021/11/08 00:05:29;;;;;;;45.43;31.10;;;;;;;6.72;100.00;101157.42;1766586;80;21446;-85
2021/11/08 00:08:01;;;;;;;43.23;29.00;;;;;;;6.74;100.00;101155.59;1766849;81;21043;-85
2021/11/08 00:10:33;;;;;;;40.83;29.20;;;;;;;6.75;100.00;101162.45;1743808;81;21971;-85
2021/11/08 00:13:04;;;;;;;43.95;29.23;;;;;;;6.77;100.00;101163.22;1763874;80;21046;-85
2021/11/08 00:16:06;;;;;;;44.15;29.32;;;;;;;6.76;100.00;101158.95;1700858;83;21742;-85
2021/11/08 00:18:33;;;;;;;45.12;28.92;;;;;;;6.75;100.00;101150.33;1763424;81;21015;-89
2021/11/08 00:20:57;;;;;;;40.90;27.65;;;;;;;6.76;100.00;101144.72;1763646;81;21599;-87
2021/11/08 00:23:27;;;;;;;39.98;27.95;;;;;;;6.76;100.00;101140.84;1700825;84;21015;-86
2021/11/08 00:25:57;;;;;;;42.90;28.27;;;;;;;6.77;100.00;101130.39;1680433;84;21044;-85
2021/11/08 00:28:25;;;;;;;;;;;;;;;6.79;100.00;101129.86;1706903;84;20992;-83
2021/11/08 00:30:54;;;;;;;46.45;28.12;;;;;;;6.79;100.00;101122.10;1700933;83;20199;-85
2021/11/08 00:33:24;;;;;;;42.25;28.87;;;;;;;6.78;100.00;101116.98;1766710;80;21046;-85
2021/11/08 00:36:00;;;;;;;38.17;28.87;;;;;;;6.80;100.00;101115.16;1700976;84;21552;-87
2021/11/08 00:38:28;;;;;;;43.13;29.10;;;;;;;6.80;100.00;101106.09;1766564;81;21007;-85
2021/11/08 00:40:57;;;;;;;44.55;30.32;;;;;;;6.81;100.00;101089.66;1680167;83;21099;-86
2021/11/08 00:43:25;;;;;;;43.95;30.02;;;;;;;6.79;100.00;101083.27;1766480;80;21603;-85
2021/11/08 00:45:53;;;;;;;45.15;30.00;;;;;;;6.83;100.00;101089.12;1700833;84;21623;-86
2021/11/08 00:48:23;;;;;;;43.42;28.80;;;;;;;6.87;100.00;101096.27;1700986;84;21175;-85
2021/11/08 00:50:53;;;;;;;44.75;30.02;;;;;;;6.89;100.00;101104.33;1681150;84;21051;-84
2021/11/08 00:53:22;;;;;;;47.23;31.00;;;;;;;6.93;100.00;101095.95;1700939;84;21039;-86
2021/11/08 00:55:52;;;;;;;48.35;32.58;;;;;;;6.98;100.00;101089.23;1765819;80;21019;-85
2021/11/08 00:58:34;;;;;;;45.98;30.65;;;;;;;6.97;100.00;101083.20;1701150;83;21071;-86
2021/11/08 01:01:02;;;;;;;46.65;30.40;;;;;;;6.96;100.00;101084.15;1703507;83;21882;-85
2021/11/08 01:03:27;;;;;;;45.12;30.75;;;;;;;6.99;100.00;101059.84;1676883;83;21066;-84
2021/11/08 01:05:54;;;;;;;43.98;30.27;;;;;;;7.02;100.00;101064.40;1766580;81;21000;-85
2021/11/08 01:08:21;;;;;;;47.10;30.70;;;;;;;7.04;100.00;101065.16;1701012;84;21079;-84
2021/11/08 01:10:50;;;;;;;43.68;30.45;;;;;;;7.06;100.00;101056.83;1744639;81;21528;-85
2021/11/08 01:13:17;;;;;;;41.48;29.55;;;;;;;7.09;100.00;101052.79;1701187;84;22047;-84
2021/11/08 01:15:45;;;;;;;41.00;30.77;;;;;;;7.12;100.00;101048.38;1766471;80;21595;-84
2021/11/08 01:18:12;;;;;;;49.98;32.90;;;;;;;7.14;100.00;101049.10;1701350;84;21125;-84
2021/11/08 01:20:45;;;;;;;49.85;31.30;;;;;;;7.16;100.00;101055.90;1750817;80;21072;-85
2021/11/08 01:23:08;;;;;;;45.88;31.48;;;;;;;7.16;100.00;101060.22;1769512;80;21054;-86
2021/11/08 01:25:36;;;;;;;43.55;31.82;;;;;;;7.17;100.00;101053.66;1750875;80;21061;-87
2021/11/08 01:28:06;;;;;;;49.05;31.55;;;;;;;7.19;100.00;101049.23;1772792;80;21057;-85
2021/11/08 01:30:33;;;;;;;45.50;31.70;;;;;;;7.22;100.00;101048.23;1773131;80;21042;-85
2021/11/08 01:33:16;;;;;;;46.18;32.73;;;;;;;7.23;100.00;101044.28;1772364;80;21034;-84
2021/11/08 01:38:37;;;;;;;42.95;30.37;;;;;;;7.25;100.00;101044.19;1716054;82;21156;-85
2021/11/08 01:40:38;;;;;;;;;;;;;;;7.25;100.00;101035.95;1734058;82;21422;-87
2021/11/08 01:43:07;;;;;;;42.65;28.42;;;;;;;7.26;100.00;101027.27;1736085;82;20194;-86
2021/11/08 01:45:35;;;;;;;42.88;30.23;;;;;;;7.28;100.00;101028.50;1751035;80;22140;-86
2021/11/08 01:48:04;;;;;;;43.50;30.90;;;;;;;7.30;100.00;101023.22;1685410;82;21067;-85
2021/11/08 01:50:33;;;;;;;42.95;31.50;;;;;;;7.31;100.00;101027.02;1772910;80;21168;-84
2021/11/08 01:53:00;;;;;;;45.98;31.40;;;;;;;7.33;100.00;101024.36;1773293;80;21015;-85
2021/11/08 01:55:30;;;;;;;43.78;30.50;;;;;;;7.35;100.00;101022.05;1772568;80;21595;-86
2021/11/08 01:57:58;;;;;;;44.98;31.62;;;;;;;7.37;100.00;101020.66;1773078;80;21042;-86
2021/11/08 02:00:28;;;;;;;43.52;30.27;;;;;;;7.38;100.00;101017.16;1772813;80;21054;-85
2021/11/08 02:02:56;;;;;;;45.08;32.70;;;;;;;7.38;100.00;101017.16;1772118;80;21163;-86
2021/11/08 02:05:23;;;;;;;40.33;29.92;;;;;;;7.36;100.00;101011.22;1772831;80;21011;-86
2021/11/08 02:07:52;;;;;;;44.18;31.40;;;;;;;7.34;100.00;101013.05;1772743;80;21062;-86
2021/11/08 02:10:21;;;;;;;43.87;31.45;;;;;;;7.34;100.00;101005.28;1750881;80;21058;-85
2021/11/08 02:12:50;;;;;;;47.00;32.48;;;;;;;7.33;100.00;101002.34;1773303;80;21089;-88
2021/11/08 02:15:20;;;;;;;44.80;33.28;;;;;;;7.33;100.00;100998.45;1743129;82;21797;-86
2021/11/08 02:17:48;;;;;;;42.13;29.92;;;;;;;7.33;100.00;100994.09;1730694;80;21508;-87
2021/11/08 02:20:24;;;;;;;48.73;33.10;;;;;;;7.33;100.00;100997.98;1750241;82;21050;-87
2021/11/08 02:22:52;;;;;;;41.65;30.02;;;;;;;7.33;100.00;100991.98;1749877;80;21070;-88
2021/11/08 02:25:21;;;;;;;49.18;33.20;;;;;;;7.32;100.00;100990.30;1750078;82;21043;-86
2021/11/08 02:27:50;;;;;;;43.95;32.48;;;;;;;7.33;100.00;100989.39;1750089;80;21681;-86
2021/11/08 02:30:19;;;;;;;44.90;32.53;;;;;;;7.32;100.00;100988.53;1730795;82;21504;-87
2021/11/08 02:32:47;;;;;;;42.50;32.28;;;;;;;7.31;100.00;100980.38;1750106;82;21590;-87
2021/11/08 02:35:17;;;;;;;43.83;32.38;;;;;;;7.33;100.00;100972.55;1750309;80;21130;-87
2021/11/08 02:37:44;;;;;;;48.70;34.25;;;;;;;7.33;100.00;100971.25;1750470;82;21019;-86
2021/11/08 02:40:21;;;;;;;45.52;32.90;;;;;;;7.34;100.00;100965.13;1731373;82;21093;-86
2021/11/08 02:42:51;;;;;;;50.17;34.05;;;;;;;7.33;100.00;100955.23;1707686;82;21031;-86
2021/11/08 02:45:22;;;;;;;47.70;34.47;;;;;;;7.33;100.00;100957.83;1750521;82;21543;-87
2021/11/08 02:47:50;;;;;;;;;;;;;;;7.31;100.00;100959.66;1733493;82;21089;-87
2021/11/08 02:50:20;;;;;;;54.55;37.15;;;;;;;7.32;100.00;100965.22;1731140;82;20140;-88
2021/11/08 02:52:50;;;;;;;56.55;37.30;;;;;;;7.31;100.00;100957.55;1731082;80;21081;-87
2021/11/08 02:55:22;;;;;;;54.90;37.40;;;;;;;7.31;100.00;100961.42;1750263;82;20940;-86
2021/11/08 02:57:50;;;;;;;56.68;38.88;;;;;;;7.32;100.00;100963.10;1747584;82;21085;-87
2021/11/08 03:00:22;;;;;;;55.63;38.28;;;;;;;7.32;100.00;100961.33;1731428;82;21114;-86
2021/11/08 03:02:50;;;;;;;64.92;40.25;;;;;;;7.32;100.00;100968.28;1727455;80;21693;-85
2021/11/08 03:05:20;;;;;;;66.65;42.17;;;;;;;7.30;100.00;100961.05;1720564;82;21141;-85
2021/11/08 03:07:47;;;;;;;66.12;43.52;;;;;;;7.31;100.00;100954.95;1720450;83;21018;-87
2021/11/08 03:10:21;;;;;;;61.18;42.75;;;;;;;7.31;100.00;100948.47;1720343;82;21078;-86
2021/11/08 03:12:52;;;;;;;60.88;41.63;;;;;;;7.31;100.00;100953.18;1720426;83;21073;-85
2021/11/08 03:15:36;;;;;;;53.80;39.63;;;;;;;7.32;100.00;100943.67;1723477;82;21057;-85
2021/11/08 03:18:04;;;;;;;53.48;38.17;;;;;;;7.33;100.00;100945.34;1745503;82;21187;-87
2021/11/08 03:20:26;;;;;;;63.68;42.55;;;;;;;7.33;100.00;100938.87;1741447;82;21022;-87
2021/11/08 03:22:57;;;;;;;59.30;39.33;;;;;;;7.34;100.00;100936.18;1721020;82;21539;-86
2021/11/08 03:28:07;;;;;;;56.05;39.30;;;;;;;7.35;100.00;100929.23;1742389;82;21500;-88
2021/11/08 03:30:39;;;;;;;58.68;40.15;;;;;;;7.35;100.00;100937.86;1720895;82;21014;-88
2021/11/08 03:33:11;;;;;;;57.08;41.88;;;;;;;7.36;100.00;100932.20;1724954;82;21808;-87
2021/11/08 03:35:39;;;;;;;60.45;42.10;;;;;;;7.36;100.00;100937.38;1743069;82;21563;-87
2021/11/08 03:38:09;;;;;;;65.57;46.00;;;;;;;7.39;100.00;100940.62;1742486;82;21093;-88
2021/11/08 03:40:40;;;;;;;57.78;42.00;;;;;;;7.42;100.00;100935.29;1720941;82;20999;-87
2021/11/08 03:43:12;;;;;;;;;;;;;;;7.46;100.00;100938.98;1722759;82;21114;-86
2021/11/08 03:45:41;;;;;;;57.05;41.63;;;;;;;7.49;100.00;100944.82;1745891;82;20459;-88
2021/11/08 03:48:11;;;;;;;63.65;44.25;;;;;;;7.52;100.00;100939.95;1742427;82;21049;-85
2021/11/08 03:50:39;;;;;;;67.40;45.08;;;;;;;7.54;100.00;100928.57;1729812;80;21528;-86
2021/11/08 03:53:06;;;;;;;60.90;42.98;;;;;;;7.55;100.00;100925.06;1698758;84;21094;-87
2021/11/08 03:55:35;;;;;;;64.22;42.67;;;;;;;7.56;100.00;100932.36;1757840;80;21027;-88
2021/11/08 03:58:03;;;;;;;60.03;42.10;;;;;;;7.58;100.00;100934.41;1698554;84;21556;-86
2021/11/08 04:00:31;;;;;;;57.90;40.45;;;;;;;7.62;100.00;100938.95;1738658;81;21008;-83
2021/11/08 04:03:00;;;;;;;53.48;38.70;;;;;;;7.65;100.00;100933.61;1712495;82;21034;-85
2021/11/08 04:05:31;;;;;;;55.88;39.18;;;;;;;7.69;100.00;100937.20;1773176;80;21098;-86
2021/11/08 04:08:00;;;;;;;;;;;;;;;7.71;100.00;100935.84;1741767;80;21125;-86
2021/11/08 04:10:28;;;;;;;51.80;37.98;;;;;;;7.72;100.00;100942.70;1714958;82;20492;-85
2021/11/08 04:13:03;;;;;;;50.55;36.65;;;;;;;7.73;100.00;100929.63;1773175;80;21508;-84
2021/11/08 04:15:31;;;;;;;53.33;38.63;;;;;;;7.74;100.00;100942.13;1770752;80;21136;-83
2021/11/08 04:17:56;;;;;;;55.10;36.98;;;;;;;7.80;100.00;100932.71;1708281;82;21026;-83
2021/11/08 04:20:24;;;;;;;94.83;40.70;;;;;;;7.96;100.00;100939.59;1744861;80;21084;-83
2021/11/08 04:22:54;;;;;;;118.40;41.98;;;;;;;8.16;100.00;100944.89;1764475;80;21617;-84
2021/11/08 04:25:24;;;;;;;59.80;36.50;;;;;;;8.30;100.00;100947.94;1778288;80;21072;-84
2021/11/08 04:27:53;;;;;;;75.45;38.48;;;;;;;8.40;100.00;100939.15;1778787;80;21038;-83
2021/11/08 04:30:22;;;;;;;60.35;35.92;;;;;;;8.52;100.00;100934.08;1778815;80;21117;-85
2021/11/08 04:35:39;;;;;;;50.33;37.50;;;;;;;8.69;100.00;100920.52;1750131;80;21006;-83
2021/11/08 04:38:08;;;;;;;48.65;36.90;;;;;;;8.73;100.00;100921.98;1774153;80;21038;-84
2021/11/08 04:40:31;;;;;;;50.88;36.28;;;;;;;8.78;100.00;100920.40;1746021;80;21042;-84
2021/11/08 04:43:08;;;;;;;54.13;39.23;;;;;;;8.86;100.00;100927.69;1778531;80;21029;-84
2021/11/08 04:48:33;;;;;;;56.42;37.30;;;;;;;9.18;100.00;100923.06;1749857;80;21034;-84
2021/11/08 04:50:55;;;;;;;56.35;37.38;;;;;;;9.23;100.00;100927.48;1760514;80;21821;-83
2021/11/08 05:23:45;;;;;;;54.42;37.05;;;;;;;9.01;100.00;100900.78;1753545;80;21087;-85
2021/11/08 05:28:37;;;;;;;50.55;34.58;;;;;;;8.99;100.00;100901.33;1736399;80;21465;-84
2021/11/08 05:30:49;;;;;;;45.88;34.03;;;;;;;9.03;100.00;100905.86;1733467;80;21009;-84
2021/11/08 05:33:16;;;;;;;51.00;35.17;;;;;;;9.10;100.00;100911.03;1684777;83;21024;-84
2021/11/08 05:35:44;;;;;;;45.65;32.42;;;;;;;9.13;100.00;100916.86;1677475;84;21043;-84
2021/11/08 05:38:12;;;;;;;44.00;30.68;;;;;;;9.20;100.00;100930.75;1702922;83;21174;-85
2021/11/08 05:40:39;;;;;;;40.25;29.15;;;;;;;9.27;100.00;100925.52;1677533;84;21007;-84
2021/11/08 05:43:07;;;;;;;37.58;27.95;;;;;;;9.29;100.00;100923.19;1706080;84;20999;-83
2021/11/08 05:45:38;;;;;;;37.85;27.85;;;;;;;9.31;100.00;100932.20;1706088;84;21063;-84
2021/11/08 05:48:07;;;;;;;32.97;26.40;;;;;;;9.33;100.00;100921.70;1665112;85;21100;-86
2021/11/08 05:50:38;;;;;;;34.95;26.20;;;;;;;9.37;100.00;100924.48;1686172;83;21167;-84
2021/11/08 05:53:08;;;;;;;33.67;25.70;;;;;;;9.38;100.00;100919.63;1748069;82;21027;-84
2021/11/08 05:55:52;;;;;;;30.75;23.95;;;;;;;9.40;100.00;100912.56;1748505;80;21570;-86
2021/11/08 05:58:44;;;;;;;31.42;24.35;;;;;;;9.43;100.00;100912.38;1750496;80;21591;-85
2021/11/08 06:02:06;;;;;;;31.37;24.25;;;;;;;9.46;100.00;100911.70;1730444;81;21004;-85
2021/11/08 06:51:36;;;;;;;28.15;16.67;;;;;;;10.26;100.00;100878.15;1606097;88;21979;-88
2021/11/08 06:54:05;;;;;;;19.40;16.12;;;;;;;10.32;100.00;100876.89;1598588;89;21142;-86
2021/11/08 06:56:40;;;;;;;32.73;15.90;;;;;;;10.38;100.00;100883.48;1630002;86;21051;-84
2021/11/08 06:59:05;;;;;;;35.03;18.80;;;;;;;10.43;100.00;100877.95;1599954;87;21735;-85
2021/11/08 07:01:34;;;;;;;28.25;17.82;;;;;;;10.43;100.00;100876.17;1634152;86;21029;-85
2021/11/08 07:04:01;;;;;;;29.72;17.77;;;;;;;10.44;100.00;100877.84;1626479;86;21148;-85
2021/11/08 07:06:28;;;;;;;21.68;17.98;;;;;;;10.46;100.00;100868.61;1604564;87;21114;-84
2021/11/08 07:08:56;;;;;;;23.87;18.23;;;;;;;10.51;100.00;100866.53;1626768;86;21176;-85
2021/11/08 07:11:23;;;;;;;29.35;18.42;;;;;;;10.54;100.00;100864.98;1606423;87;22050;-86
2021/11/08 07:13:51;;;;;;;23.77;18.32;;;;;;;10.57;100.00;100873.90;1598064;87;21141;-86
2021/11/08 07:16:19;;;;;;;23.83;18.40;;;;;;;10.58;100.00;100876.38;1614458;87;21129;-86
2021/11/08 07:18:46;;;;;;;25.12;18.42;;;;;;;10.64;100.00;100875.61;1614296;87;21125;-86
2021/11/08 07:21:13;;;;;;;23.32;18.87;;;;;;;10.67;100.00;100866.25;1614525;87;21094;-86
2021/11/08 07:23:41;;;;;;;27.73;21.52;;;;;;;10.69;100.00;100872.19;1627101;86;21144;-87
2021/11/08 07:26:11;;;;;;;27.95;22.22;;;;;;;10.73;100.00;100887.49;1606402;89;21571;-85
2021/11/08 07:28:40;;;;;;;30.90;23.70;;;;;;;10.78;100.00;100896.73;1659967;86;21038;-85
2021/11/08 07:31:12;;;;;;;35.03;26.10;;;;;;;10.81;100.00;100902.59;1660571;85;21081;-86
2021/11/08 07:33:38;;;;;;;35.88;29.42;;;;;;;10.83;100.00;100899.38;1660867;84;21129;-84
2021/11/08 07:36:06;;;;;;;38.42;29.30;;;;;;;10.85;100.00;100896.69;1640515;86;21151;-86
2021/11/08 07:38:35;;;;;;;36.00;30.65;;;;;;;10.83;100.00;100891.56;1612664;87;21093;-86
2021/11/08 07:41:07;;;;;;;42.10;34.63;;;;;;;10.84;100.00;100892.41;1577652;88;21580;-85
2021/11/08 07:43:35;;;;;;;;;;;;;;;10.86;100.00;100900.92;1637789;86;21026;-87
2021/11/08 07:46:02;;;;;;;43.08;33.60;;;;;;;10.87;100.00;100899.53;1663304;85;20181;-86
2021/11/08 07:48:29;;;;;;;46.80;35.85;;;;;;;10.87;100.00;100906.50;1633838;86;21769;-87
2021/11/08 07:50:58;;;;;;;44.27;35.80;;;;;;;10.85;100.00;100895.38;1660975;86;21129;-87
2021/11/08 07:53:27;;;;;;;47.38;36.85;;;;;;;10.87;100.00;100897.38;1621426;88;21105;-88
2021/11/08 07:55:55;;;;;;;50.43;37.23;;;;;;;10.89;100.00;100892.91;1649770;87;21046;-87
2021/11/08 07:58:22;;;;;;;40.23;33.08;;;;;;;10.91;100.00;100897.99;1615340;87;21046;-86
2021/11/08 08:00:49;;;;;;;41.85;33.42;;;;;;;10.92;100.00;100895.30;1649416;86;21182;-86
2021/11/08 08:03:22;;;;;;;40.12;33.05;;;;;;;10.92;100.00;100886.18;1614292;87;21629;-87
2021/11/08 08:05:51;;;;;;;39.08;31.87;;;;;;;10.93;100.00;100882.64;1661197;84;21534;-86
2021/11/08 08:08:21;;;;;;;36.40;28.98;;;;;;;10.94;100.00;100886.88;1676491;84;21057;-86
2021/11/08 08:10:51;;;;;;;38.28;28.15;;;;;;;10.98;100.00;100905.72;1670671;85;21082;-85
2021/11/08 08:13:27;;;;;;;33.18;27.10;;;;;;;10.98;100.00;100897.45;1663434;85;21154;-86
2021/11/08 08:16:01;;;;;;;31.20;24.45;;;;;;;10.98;100.00;100900.06;1653102;86;21078;-86
2021/11/08 08:18:29;;;;;;;31.35;23.15;;;;;;;10.98;100.00;100900.06;1636006;85;21128;-86
2021/11/08 08:20:57;;;;;;;28.32;22.02;;;;;;;10.98;100.00;100897.91;1664010;85;21027;-86
2021/11/08 08:23:26;;;;;;;29.35;21.73;;;;;;;10.97;100.00;100889.27;1650895;85;21150;-87
2021/11/08 08:25:55;;;;;;;24.37;20.85;;;;;;;10.97;100.00;100889.27;1662925;86;21042;-87
2021/11/08 08:28:22;;;;;;;27.15;20.32;;;;;;;10.97;100.00;100888.45;1638943;85;21066;-86
2021/11/08 08:30:49;;;;;;;24.80;20.77;;;;;;;10.99;100.00;100884.79;1647843;85;21156;-87
2021/11/08 08:33:18;;;;;;;26.27;21.50;;;;;;;11.01;100.00;100881.61;1627592;87;21099;-86
2021/11/08 08:35:46;;;;;;;29.55;23.10;;;;;;;11.02;100.00;100875.91;1639245;87;21116;-87
2021/11/08 08:38:18;;;;;;;25.50;21.10;;;;;;;11.02;100.00;100883.25;1633208;86;21167;-89
2021/11/08 08:40:47;;;;;;;;;;;;;;;11.05;100.00;100893.45;1586777;89;21222;-87
2021/11/08 08:43:18;;;;;;;23.90;20.68;;;;;;;11.09;100.00;100889.34;1578613;89;20201;-88
2021/11/08 08:45:47;;;;;;;27.73;21.73;;;;;;;11.09;100.00;100889.34;1660805;86;21544;-86
2021/11/08 08:48:14;;;;;;;27.25;20.35;;;;;;;11.09;100.00;100893.25;1654244;86;21587;-87
2021/11/08 08:50:44;;;;;;;23.92;20.25;;;;;;;11.13;100.00;100893.37;1653752;85;21147;-87
2021/11/08 08:53:16;;;;;;;28.00;21.40;;;;;;;11.13;100.00;100882.94;1660174;85;21509;-87
2021/11/08 08:55:44;;;;;;;25.00;20.12;;;;;;;11.15;100.00;100884.97;1657947;85;21046;-86
2021/11/08 08:58:13;;;;;;;25.00;19.95;;;;;;;11.20;100.00;100877.18;1639170;85;21097;-86
2021/11/08 09:00:47;;;;;;;27.50;20.27;;;;;;;11.23;100.00;100871.36;1632680;87;21586;-86
2021/11/08 09:03:18;;;;;;;25.77;20.23;;;;;;;11.26;100.00;100874.57;1629018;87;21167;-87
2021/11/08 09:05:47;;;;;;;25.08;20.30;;;;;;;11.30;100.00;100865.59;1659506;85;21089;-86
2021/11/08 09:08:14;;;;;;;27.62;20.48;;;;;;;11.34;100.00;100864.89;1655295;86;21665;-86
2021/11/08 09:10:44;;;;;;;26.27;21.10;;;;;;;11.40;100.00;100856.60;1624174;86;21702;-86
2021/11/08 09:13:11;;;;;;;29.70;20.72;;;;;;;11.44;100.00;100843.70;1600247;88;21138;-88
2021/11/08 09:15:40;;;;;;;28.55;19.73;;;;;;;11.44;100.00;100835.04;1662952;85;21150;-87
2021/11/08 09:18:09;;;;;;;25.75;19.35;;;;;;;11.47;100.00;100838.25;1637247;85;21593;-87
2021/11/08 09:20:38;;;;;;;27.58;20.00;;;;;;;11.52;100.00;100841.81;1655782;86;21045;-86
2021/11/08 09:23:06;;;;;;;26.75;18.82;;;;;;;11.58;100.00;100857.48;1642453;86;21031;-86
2021/11/08 09:25:34;;;;;;;29.52;19.07;;;;;;;11.61;100.00;100859.86;1663530;84;21014;-87
2021/11/08 09:28:04;;;;;;;26.00;19.17;;;;;;;11.65;100.00;100861.28;1642590;84;21140;-87
2021/11/08 09:30:37;;;;;;;27.95;19.40;;;;;;;11.70;100.00;100856.53;1642175;86;21022;-86
2021/11/08 09:33:05;;;;;;;25.85;19.27;;;;;;;11.72;100.00;100866.38;1639435;86;21104;-86
2021/11/08 09:35:36;;;;;;;35.08;20.10;;;;;;;11.75;100.00;100859.64;1659977;86;21117;-85
2021/11/08 09:38:02;;;;;;;24.37;19.37;;;;;;;11.77;100.00;100866.03;1662148;85;21061;-86
2021/11/08 09:40:29;;;;;;;25.35;19.57;;;;;;;11.79;100.00;100862.84;1675050;85;21147;-87
2021/11/08 09:42:57;;;;;;;28.02;19.62;;;;;;;11.80;100.00;100848.86;1656331;86;21029;-85
2021/11/08 09:45:25;;;;;;;23.62;19.15;;;;;;;11.79;100.00;100839.36;1671130;84;21145;-87
2021/11/08 09:47:52;;;;;;;22.05;19.57;;;;;;;11.80;100.00;100835.32;1663503;85;21097;-86
2021/11/08 09:50:24;;;;;;;24.05;19.55;;;;;;;11.80;100.00;100815.75;1663432;86;21057;-86
2021/11/08 09:52:52;;;;;;;23.42;19.00;;;;;;;11.82;100.00;100825.61;1660018;85;21942;-87
2021/11/08 09:55:23;;;;;;;26.55;20.62;;;;;;;11.88;100.00;100829.98;1666377;85;21046;-85
2021/11/08 09:57:55;;;;;;;23.87;20.25;;;;;;;11.88;100.00;100839.12;1643062;86;21093;-85
2021/11/08 10:00:37;;;;;;;25.90;20.80;;;;;;;11.88;100.00;100846.95;1636943;87;21187;-86
2021/11/08 10:03:12;;;;;;;23.95;20.50;;;;;;;11.89;100.00;100841.63;1607517;88;20977;-86
2021/11/08 10:05:46;;;;;;;23.83;19.98;;;;;;;11.88;100.00;100842.58;1611507;87;21075;-86
2021/11/08 10:08:16;;;;;;;26.93;21.17;;;;;;;11.83;100.00;100830.34;1611948;88;21110;-86
2021/11/08 10:10:43;;;;;;;29.77;22.10;;;;;;;11.79;100.00;100836.75;1623449;86;20998;-87
2021/11/08 10:13:16;;;;;;;32.85;22.30;;;;;;;11.77;100.00;100841.25;1645118;86;21132;-87
2021/11/08 10:15:48;;;;;;;30.23;22.48;;;;;;;11.76;100.00;100844.80;1583386;89;21058;-87
2021/11/08 10:18:19;;;;;;;32.53;24.25;;;;;;;11.75;100.00;100846.59;1631679;87;21131;-87
2021/11/08 10:20:51;;;;;;;32.70;25.03;;;;;;;11.74;100.00;100833.65;1631877;87;21691;-87
2021/11/08 10:23:22;;;;;;;31.48;23.77;;;;;;;11.74;100.00;100826.67;1632012;87;21038;-87
2021/11/08 10:25:51;;;;;;;31.12;24.70;;;;;;;11.75;100.00;100830.95;1630752;86;21120;-87
2021/11/08 10:28:23;;;;;;;31.73;23.83;;;;;;;11.77;100.00;100834.73;1634486;86;22343;-87
2021/11/08 10:31:07;;;;;;;33.95;24.65;;;;;;;11.73;100.00;100818.48;1635193;86;21552;-87
2021/11/08 10:33:39;;;;;;;30.57;23.70;;;;;;;11.73;100.00;100819.79;1611924;86;21053;-87
2021/11/08 10:36:18;;;;;;;30.88;22.67;;;;;;;11.66;100.00;100831.16;1634992;86;21054;-87
2021/11/08 10:38:48;;;;;;;30.75;21.80;;;;;;;11.58;100.00;100836.13;1622534;87;21067;-86
2021/11/08 10:41:20;;;;;;;29.00;21.65;;;;;;;11.50;100.00;100843.70;1607348;89;21579;-86
2021/11/08 10:43:54;;;;;;;28.62;20.30;;;;;;;11.43;100.00;100844.66;1589603;87;21123;-85
2021/11/08 10:46:28;;;;;;;23.57;19.62;;;;;;;11.39;100.00;100828.05;1617069;86;21077;-87
2021/11/08 10:49:03;;;;;;;25.08;20.08;;;;;;;11.34;100.00;100827.09;1645375;86;21042;-86
2021/11/08 10:51:36;;;;;;;23.85;18.10;;;;;;;11.32;100.00;100827.67;1632571;86;21009;-86
2021/11/08 10:54:10;;;;;;;21.73;16.93;;;;;;;11.30;100.00;100826.48;1613357;87;21054;-84
2021/11/08 10:56:45;;;;;;;25.45;17.10;;;;;;;11.29;100.00;100832.64;1631947;87;21227;-87
2021/11/08 10:59:20;;;;;;;32.17;18.25;;;;;;;11.29;100.00;100827.43;1631817;87;21496;-86
2021/11/08 11:01:57;;;;;;;25.17;17.75;;;;;;;11.31;100.00;100839.03;1633960;86;21053;-84
2021/11/08 11:04:43;;;;;;;21.60;17.52;;;;;;;11.32;100.00;100835.03;1589136;88;21543;-85
2021/11/08 11:07:17;;;;;;;25.37;17.45;;;;;;;11.30;100.00;100839.52;1630952;87;21140;-84
2021/11/08 11:09:44;;;;;;;26.80;17.75;;;;;;;11.29;100.00;100844.38;1618466;88;22700;-86
2021/11/08 11:12:18;;;;;;;25.20;18.23;;;;;;;11.30;100.00;100853.02;1605397;89;21118;-84
2021/11/08 11:15:03;;;;;;;25.85;17.80;;;;;;;11.31;100.00;100836.42;1621446;88;21024;-85
2021/11/08 11:17:41;;;;;;;26.75;18.40;;;;;;;11.31;100.00;100835.98;1632921;86;21046;-84
2021/11/08 11:20:14;;;;;;;25.43;18.32;;;;;;;11.32;100.00;100835.03;1662130;86;21630;-85
2021/11/08 11:22:54;;;;;;;24.98;17.82;;;;;;;11.34;100.00;100823.99;1623606;87;21038;-85
2021/11/08 11:25:17;;;;;;;23.12;18.92;;;;;;;11.39;100.00;100838.48;1633879;86;21050;-85
2021/11/08 11:27:49;;;;;;;25.52;19.75;;;;;;;11.39;100.00;100838.48;1642074;87;21085;-85
2021/11/08 11:30:28;;;;;;;27.25;19.82;;;;;;;11.38;100.00;100845.45;1607160;86;21002;-85
2021/11/08 11:33:09;;;;;;;30.75;23.65;;;;;;;11.37;100.00;100846.42;1583986;87;21248;-84
2021/11/08 11:35:48;;;;;;;31.17;24.82;;;;;;;11.39;100.00;100847.60;1575129;89;21568;-86
2021/11/08 11:38:18;;;;;;;33.45;25.32;;;;;;;11.37;100.00;100835.99;1609179;87;21042;-84
2021/11/08 11:40:54;;;;;;;42.15;32.90;;;;;;;11.40;100.00;100836.23;1626871;86;21129;-85
2021/11/08 11:43:29;;;;;;;48.17;34.73;;;;;;;11.41;100.00;100832.68;1618238;86;21042;-84
2021/11/08 11:46:00;;;;;;;57.25;36.17;;;;;;;11.36;100.00;100848.19;1636157;87;21104;-84
2021/11/08 11:48:31;;;;;;;58.10;37.93;;;;;;;11.35;100.00;100840.00;1582056;89;21259;-85
2021/11/08 11:50:59;;;;;;;66.85;39.63;;;;;;;11.33;100.00;100836.70;1632359;87;21034;-84
2021/11/08 11:53:30;;;;;;;57.70;37.75;;;;;;;11.33;100.00;100851.49;1611760;87;22088;-86
2021/11/08 11:55:57;;;;;;;64.67;38.78;;;;;;;11.33;100.00;100856.25;1623694;85;21174;-84
2021/11/08 11:58:25;;;;;;;62.33;38.92;;;;;;;11.34;100.00;100859.19;1614106;87;21080;-85
2021/11/08 12:00:55;;;;;;;61.40;39.03;;;;;;;11.39;100.00;100851.52;1608427;88;21830;-84
2021/11/08 12:03:22;;;;;;;61.45;39.65;;;;;;;11.42;100.00;100860.39;1613720;87;21112;-85
2021/11/08 12:05:54;;;;;;;60.95;36.85;;;;;;;11.43;100.00;100864.66;1627364;86;21205;-83
2021/11/08 12:08:22;;;;;;;49.65;34.63;;;;;;;11.43;100.00;100873.79;1639381;86;21577;-84
2021/11/08 12:10:53;;;;;;;56.40;37.55;;;;;;;11.43;100.00;100869.88;1631670;87;21627;-85
2021/11/08 12:13:29;;;;;;;54.10;37.60;;;;;;;11.43;100.00;100866.81;1638538;86;21159;-84
2021/11/08 12:16:00;;;;;;;54.20;36.17;;;;;;;11.48;100.00;100880.33;1649168;85;21123;-84
2021/11/08 12:18:32;;;;;;;50.35;35.88;;;;;;;11.50;100.00;100873.23;1652429;86;21088;-84
2021/11/08 12:20:59;;;;;;;49.77;35.52;;;;;;;11.52;100.00;100879.62;1658656;86;21113;-85
2021/11/08 12:23:31;;;;;;;55.05;37.20;;;;;;;11.55;100.00;100883.77;1661850;86;21022;-85
2021/11/08 12:26:00;;;;;;;48.28;35.43;;;;;;;11.58;100.00;100872.64;1651266;85;21150;-84
2021/11/08 12:28:30;;;;;;;52.65;34.73;;;;;;;11.63;100.00;100856.19;1649229;87;21049;-85
2021/11/08 12:31:07;;;;;;;47.15;33.38;;;;;;;11.67;100.00;100857.60;1630244;87;21094;-86
2021/11/08 12:33:40;;;;;;;49.23;33.88;;;;;;;11.72;100.00;100856.44;1605820;87;21043;-85
2021/11/08 12:36:16;;;;;;;44.90;32.50;;;;;;;11.76;100.00;100860.45;1656398;85;21104;-85
2021/11/08 12:39:10;;;;;;;42.23;31.20;;;;;;;11.79;100.00;100874.09;1644313;86;21229;-84
2021/11/08 12:41:49;;;;;;;42.15;30.35;;;;;;;11.80;100.00;100875.77;1630589;87;21102;-84
2021/11/08 12:44:39;;;;;;;43.35;29.87;;;;;;;11.78;100.00;100816.83;1612313;87;21053;-85
2021/11/08 12:47:09;;;;;;;41.28;28.83;;;;;;;11.80;100.00;100856.19;1614287;87;21057;-85
2021/11/08 12:49:53;;;;;;;37.58;28.65;;;;;;;11.77;100.00;100887.75;1611548;88;21138;-85
2021/11/08 12:52:26;;;;;;;38.80;28.42;;;;;;;11.72;100.00;100884.64;1608009;88;21329;-84